Terminal Aerodrome Forecast
Issued by NWS

Home | Current Version | Previous Version | Text Only | Print | Product List | Glossary On
Versions: 1 2 3 4 5 6 7 8 9 10 11 12 13 14 15 16 17 18 19 20 21
000
FTUS44 KCRP 011726
TAFALI
TAF
KALI 011726Z 0118/0218 18014KT P6SM VCSH SCT030 BKN120
      TEMPO 0118/0120 5SM SHRA BKN030
     FM012200 15014G21KT P6SM SCT035 BKN150
     FM020200 14008KT P6SM FEW020 SCT150
     FM021000 15004KT P6SM BKN025 BKN150
     FM021400 14014KT P6SM SCT030 BKN150=

USA.gov is the U.S. government's official web portal to all federal, state and local government web resources and services.